EJU37QK EDDM-LIRF
Flight info
| Callsign | EJU37QK |
|---|---|
| Flight time | 1h 9m |
| Altitude | 31000 |
| Route | VAVOR3S VAVOR Y106 MODSA DCT DETSA/N0439F370 DCT NIVAS DCT CHI DCT PIDEP/N0435F350 DCT DIPVO/N0428F330 DCT NIKMA DCT RITEB RITEB4A |
| Aircraft | A319/M-SDE2E3FGIJ1RWXYZ/LB1 |
Departure
| Time | 2026-05-05 15:33 |
|---|---|
| Airport | Munich Airport (EDDM) |
Arrival
| Time | 2026-05-05 16:43 |
|---|---|
| Airport | Rome–Fiumicino Leonardo da Vinci International Airport (LIRF) |
| Time | Latitude | Longitude | Altitude | Speed | Heading |
|---|---|---|---|---|---|
| 2026-05-05 14:39 | 48.35320 | 11.77675 | 1485 ft | 0 kts | 263° |
| 2026-05-05 14:40 | 48.35320 | 11.77686 | 1485 ft | 0 kts | 263° |
| 2026-05-05 15:07 | 48.35320 | 11.77687 | 1485 ft | 0 kts | 263° |
| 2026-05-05 15:20 | 48.35322 | 11.77721 | 1485 ft | 3 kts | 263° |
| 2026-05-05 15:21 | 48.35325 | 11.77749 | 1485 ft | 4 kts | 222° |
| 2026-05-05 15:21 | 48.35345 | 11.77757 | 1483 ft | 3 kts | 173° |
| 2026-05-05 15:21 | 48.35360 | 11.77754 | 1481 ft | 0 kts | 173° |
| 2026-05-05 15:24 | 48.35358 | 11.77754 | 1480 ft | 1 kts | 173° |
| 2026-05-05 15:24 | 48.35341 | 11.77757 | 1479 ft | 4 kts | 174° |
| 2026-05-05 15:24 | 48.35302 | 11.77764 | 1485 ft | 7 kts | 173° |
| 2026-05-05 15:24 | 48.35245 | 11.77773 | 1485 ft | 10 kts | 174° |
| 2026-05-05 15:25 | 48.35165 | 11.77784 | 1485 ft | 13 kts | 171° |
| 2026-05-05 15:25 | 48.35070 | 11.77810 | 1474 ft | 14 kts | 176° |
| 2026-05-05 15:25 | 48.34980 | 11.77819 | 1485 ft | 12 kts | 174° |
| 2026-05-05 15:25 | 48.34905 | 11.77834 | 1485 ft | 10 kts | 169° |
| 2026-05-05 15:26 | 48.34847 | 11.77865 | 1478 ft | 8 kts | 161° |
| 2026-05-05 15:26 | 48.34787 | 11.77881 | 1479 ft | 11 kts | 174° |
| 2026-05-05 15:26 | 48.34704 | 11.77895 | 1480 ft | 11 kts | 169° |
| 2026-05-05 15:26 | 48.34670 | 11.77969 | 1483 ft | 8 kts | 98° |
| 2026-05-05 15:27 | 48.34674 | 11.78043 | 1485 ft | 6 kts | 84° |
| 2026-05-05 15:27 | 48.34678 | 11.78095 | 1485 ft | 4 kts | 83° |
| 2026-05-05 15:27 | 48.34682 | 11.78156 | 1476 ft | 8 kts | 83° |
| 2026-05-05 15:27 | 48.34689 | 11.78250 | 1485 ft | 11 kts | 84° |
| 2026-05-05 15:28 | 48.34699 | 11.78382 | 1481 ft | 14 kts | 82° |
| 2026-05-05 15:28 | 48.34713 | 11.78533 | 1477 ft | 15 kts | 82° |
| 2026-05-05 15:28 | 48.34724 | 11.78685 | 1472 ft | 15 kts | 84° |
| 2026-05-05 15:28 | 48.34735 | 11.78835 | 1485 ft | 15 kts | 84° |
| 2026-05-05 15:29 | 48.34747 | 11.78986 | 1485 ft | 14 kts | 83° |
| 2026-05-05 15:29 | 48.34758 | 11.79136 | 1485 ft | 14 kts | 83° |
| 2026-05-05 15:29 | 48.34770 | 11.79287 | 1481 ft | 15 kts | 83° |
| 2026-05-05 15:29 | 48.34785 | 11.79482 | 1481 ft | 21 kts | 83° |
| 2026-05-05 15:30 | 48.34802 | 11.79703 | 1485 ft | 21 kts | 83° |
| 2026-05-05 15:30 | 48.34819 | 11.79921 | 1485 ft | 21 kts | 83° |
| 2026-05-05 15:30 | 48.34829 | 11.80097 | 1485 ft | 13 kts | 94° |
| 2026-05-05 15:30 | 48.34787 | 11.80206 | 1485 ft | 11 kts | 134° |
| 2026-05-05 15:31 | 48.34715 | 11.80245 | 1485 ft | 11 kts | 174° |
| 2026-05-05 15:31 | 48.34635 | 11.80258 | 1482 ft | 12 kts | 173° |
| 2026-05-05 15:31 | 48.34553 | 11.80273 | 1481 ft | 12 kts | 173° |
| 2026-05-05 15:31 | 48.34481 | 11.80269 | 1485 ft | 6 kts | 205° |
| 2026-05-05 15:32 | 48.34461 | 11.80221 | 1485 ft | 2 kts | 260° |
| 2026-05-05 15:32 | 48.34460 | 11.80214 | 1480 ft | 0 kts | 265° |
| 2026-05-05 15:33 | 48.34452 | 11.80076 | 1486 ft | 46 kts | 264° |
| 2026-05-05 15:33 | 48.34387 | 11.79256 | 1486 ft | 112 kts | 263° |
| 2026-05-05 15:33 | 48.34276 | 11.77814 | 1509 ft | 161 kts | 263° |
| 2026-05-05 15:33 | 48.34158 | 11.76145 | 2096 ft | 162 kts | 266° |
| 2026-05-05 15:34 | 48.34036 | 11.74465 | 2845 ft | 162 kts | 265° |
| 2026-05-05 15:34 | 48.33833 | 11.72797 | 3504 ft | 164 kts | 250° |
| 2026-05-05 15:34 | 48.33119 | 11.71441 | 4132 ft | 172 kts | 218° |
| 2026-05-05 15:34 | 48.31928 | 11.70823 | 4516 ft | 198 kts | 187° |
| 2026-05-05 15:35 | 48.30460 | 11.70778 | 4783 ft | 223 kts | 184° |
| 2026-05-05 15:35 | 48.28863 | 11.71024 | 5356 ft | 236 kts | 164° |
| 2026-05-05 15:35 | 48.27344 | 11.72166 | 5997 ft | 258 kts | 147° |
| 2026-05-05 15:35 | 48.25802 | 11.73742 | 6587 ft | 274 kts | 148° |
| 2026-05-05 15:36 | 48.24209 | 11.75375 | 7474 ft | 278 kts | 147° |
| 2026-05-05 15:36 | 48.22605 | 11.77016 | 8472 ft | 281 kts | 148° |
| 2026-05-05 15:36 | 48.20976 | 11.78675 | 9490 ft | 284 kts | 148° |
| 2026-05-05 15:36 | 48.19335 | 11.80342 | 10397 ft | 287 kts | 148° |
| 2026-05-05 15:37 | 48.17759 | 11.82228 | 11224 ft | 295 kts | 137° |
| 2026-05-05 15:37 | 48.16360 | 11.84633 | 11591 ft | 320 kts | 132° |
| 2026-05-05 15:37 | 48.14909 | 11.87270 | 12148 ft | 333 kts | 131° |
| 2026-05-05 15:37 | 48.13434 | 11.89969 | 12934 ft | 338 kts | 131° |
| 2026-05-05 15:38 | 48.11949 | 11.92684 | 13721 ft | 343 kts | 131° |
| 2026-05-05 15:38 | 48.10447 | 11.95424 | 14454 ft | 347 kts | 132° |
| 2026-05-05 15:38 | 48.08879 | 11.98273 | 15253 ft | 350 kts | 132° |
| 2026-05-05 15:38 | 48.07250 | 12.01041 | 15993 ft | 352 kts | 139° |
| 2026-05-05 15:39 | 48.05373 | 12.03293 | 16710 ft | 352 kts | 148° |
| 2026-05-05 15:39 | 48.03343 | 12.05365 | 17433 ft | 356 kts | 148° |
| 2026-05-05 15:39 | 48.01275 | 12.07468 | 18139 ft | 360 kts | 149° |
| 2026-05-05 15:39 | 47.99199 | 12.09574 | 18783 ft | 362 kts | 149° |
| 2026-05-05 15:40 | 47.97104 | 12.11700 | 19446 ft | 364 kts | 149° |
| 2026-05-05 15:40 | 47.94986 | 12.13801 | 20094 ft | 366 kts | 153° |
| 2026-05-05 15:40 | 47.92697 | 12.15405 | 20738 ft | 365 kts | 163° |
| 2026-05-05 15:40 | 47.90236 | 12.16325 | 21376 ft | 365 kts | 172° |
| 2026-05-05 15:41 | 47.87740 | 12.16970 | 22029 ft | 367 kts | 172° |
| 2026-05-05 15:41 | 47.85202 | 12.17633 | 22684 ft | 370 kts | 172° |
| 2026-05-05 15:41 | 47.82662 | 12.18306 | 23328 ft | 372 kts | 172° |
| 2026-05-05 15:41 | 47.80103 | 12.18988 | 23858 ft | 375 kts | 172° |
| 2026-05-05 15:42 | 47.77527 | 12.19676 | 24387 ft | 377 kts | 172° |
| 2026-05-05 15:42 | 47.74934 | 12.20368 | 24890 ft | 380 kts | 172° |
| 2026-05-05 15:42 | 47.72328 | 12.21065 | 25379 ft | 382 kts | 172° |
| 2026-05-05 15:42 | 47.69701 | 12.21765 | 25848 ft | 385 kts | 172° |
| 2026-05-05 15:43 | 47.67055 | 12.22462 | 26339 ft | 387 kts | 172° |
| 2026-05-05 15:43 | 47.64430 | 12.23123 | 26823 ft | 389 kts | 175° |
| 2026-05-05 15:43 | 47.61720 | 12.23376 | 27295 ft | 391 kts | 179° |
| 2026-05-05 15:43 | 47.58992 | 12.23535 | 27757 ft | 394 kts | 179° |
| 2026-05-05 15:44 | 47.56254 | 12.23695 | 28230 ft | 396 kts | 180° |
| 2026-05-05 15:44 | 47.53479 | 12.23858 | 28629 ft | 400 kts | 180° |
| 2026-05-05 15:44 | 47.50686 | 12.24019 | 29064 ft | 403 kts | 180° |
| 2026-05-05 15:44 | 47.47879 | 12.24181 | 29483 ft | 406 kts | 180° |
| 2026-05-05 15:45 | 47.45051 | 12.24346 | 29917 ft | 408 kts | 180° |
| 2026-05-05 15:45 | 47.42195 | 12.24510 | 30277 ft | 411 kts | 180° |
| 2026-05-05 15:45 | 47.39335 | 12.24675 | 30618 ft | 414 kts | 180° |
| 2026-05-05 15:45 | 47.36436 | 12.24845 | 30782 ft | 416 kts | 180° |
| 2026-05-05 15:46 | 47.33615 | 12.25013 | 30826 ft | 402 kts | 181° |
| 2026-05-05 15:46 | 47.30880 | 12.25180 | 30856 ft | 386 kts | 181° |
| 2026-05-05 15:46 | 47.28224 | 12.25338 | 30854 ft | 379 kts | 181° |
| 2026-05-05 15:47 | 47.22974 | 12.25639 | 30853 ft | 376 kts | 181° |
| 2026-05-05 15:47 | 47.17751 | 12.25947 | 30875 ft | 376 kts | 181° |
| 2026-05-05 15:48 | 47.12510 | 12.26255 | 30896 ft | 377 kts | 181° |
| 2026-05-05 15:48 | 47.07141 | 12.26551 | 31096 ft | 397 kts | 181° |
| 2026-05-05 15:48 | 47.04343 | 12.26707 | 31263 ft | 405 kts | 181° |
| 2026-05-05 15:49 | 47.01503 | 12.26869 | 31449 ft | 412 kts | 181° |
| 2026-05-05 15:49 | 46.98625 | 12.27036 | 31811 ft | 415 kts | 181° |
| 2026-05-05 15:49 | 46.95745 | 12.27206 | 32268 ft | 414 kts | 181° |
| 2026-05-05 15:49 | 46.92863 | 12.27379 | 32738 ft | 414 kts | 181° |
| 2026-05-05 15:50 | 46.89994 | 12.27552 | 33215 ft | 413 kts | 181° |
| 2026-05-05 15:50 | 46.87126 | 12.27721 | 33706 ft | 412 kts | 182° |
| 2026-05-05 15:50 | 46.84264 | 12.27888 | 34199 ft | 411 kts | 182° |
| 2026-05-05 15:50 | 46.81410 | 12.28053 | 34647 ft | 410 kts | 182° |
| 2026-05-05 15:51 | 46.78601 | 12.28195 | 35047 ft | 409 kts | 183° |
| 2026-05-05 15:51 | 46.75747 | 12.28248 | 35383 ft | 410 kts | 184° |
| 2026-05-05 15:51 | 46.72898 | 12.28233 | 35723 ft | 410 kts | 185° |
| 2026-05-05 15:51 | 46.70040 | 12.28190 | 36057 ft | 410 kts | 185° |
| 2026-05-05 15:52 | 46.67181 | 12.28147 | 36447 ft | 410 kts | 185° |
| 2026-05-05 15:52 | 46.64339 | 12.28117 | 36797 ft | 409 kts | 184° |
| 2026-05-05 15:52 | 46.61482 | 12.28102 | 36999 ft | 411 kts | 184° |
| 2026-05-05 15:53 | 46.55776 | 12.28102 | 37014 ft | 410 kts | 184° |
| 2026-05-05 15:53 | 46.50072 | 12.28128 | 36995 ft | 410 kts | 184° |
| 2026-05-05 15:54 | 46.44355 | 12.28136 | 37000 ft | 410 kts | 184° |
| 2026-05-05 15:54 | 46.38689 | 12.28134 | 36998 ft | 410 kts | 184° |
| 2026-05-05 15:55 | 46.32959 | 12.28130 | 37005 ft | 410 kts | 184° |
| 2026-05-05 15:55 | 46.27293 | 12.28132 | 36998 ft | 409 kts | 184° |
| 2026-05-05 15:56 | 46.21583 | 12.28128 | 37000 ft | 411 kts | 184° |
| 2026-05-05 15:56 | 46.15866 | 12.28127 | 37007 ft | 411 kts | 184° |
| 2026-05-05 15:57 | 46.10143 | 12.28131 | 37016 ft | 412 kts | 184° |
| 2026-05-05 15:57 | 46.04400 | 12.28137 | 37023 ft | 412 kts | 184° |
| 2026-05-05 15:58 | 45.98667 | 12.28135 | 37027 ft | 412 kts | 184° |
| 2026-05-05 15:58 | 45.92941 | 12.28138 | 37029 ft | 412 kts | 184° |
| 2026-05-05 15:59 | 45.88180 | 12.28144 | 37027 ft | 412 kts | 184° |
| 2026-05-05 15:59 | 45.82439 | 12.28144 | 37010 ft | 412 kts | 184° |
| 2026-05-05 16:00 | 45.76691 | 12.28140 | 37007 ft | 413 kts | 184° |
| 2026-05-05 16:00 | 45.70952 | 12.28137 | 37014 ft | 413 kts | 184° |
| 2026-05-05 16:01 | 45.65200 | 12.28137 | 36989 ft | 413 kts | 184° |
| 2026-05-05 16:01 | 45.59427 | 12.28136 | 36995 ft | 414 kts | 184° |
| 2026-05-05 16:02 | 45.53673 | 12.28148 | 37001 ft | 414 kts | 184° |
| 2026-05-05 16:02 | 45.47944 | 12.28155 | 37006 ft | 414 kts | 184° |
| 2026-05-05 16:03 | 45.42176 | 12.28149 | 37009 ft | 414 kts | 184° |
| 2026-05-05 16:03 | 45.36421 | 12.28144 | 37012 ft | 414 kts | 184° |
| 2026-05-05 16:04 | 45.30663 | 12.28142 | 37003 ft | 414 kts | 184° |
| 2026-05-05 16:04 | 45.24904 | 12.28143 | 37004 ft | 414 kts | 185° |
| 2026-05-05 16:05 | 45.19148 | 12.28147 | 37006 ft | 413 kts | 185° |
| 2026-05-05 16:05 | 45.13395 | 12.28152 | 37005 ft | 413 kts | 185° |
| 2026-05-05 16:06 | 45.07652 | 12.28146 | 37001 ft | 413 kts | 185° |
| 2026-05-05 16:06 | 45.01916 | 12.27976 | 37003 ft | 412 kts | 187° |
| 2026-05-05 16:07 | 44.96194 | 12.27628 | 37002 ft | 411 kts | 187° |
| 2026-05-05 16:07 | 44.90479 | 12.27279 | 36994 ft | 411 kts | 188° |
| 2026-05-05 16:08 | 44.84790 | 12.26970 | 36979 ft | 412 kts | 188° |
| 2026-05-05 16:08 | 44.79060 | 12.26682 | 36994 ft | 412 kts | 187° |
| 2026-05-05 16:09 | 44.73326 | 12.26403 | 36985 ft | 412 kts | 187° |
| 2026-05-05 16:09 | 44.67607 | 12.26110 | 36983 ft | 412 kts | 188° |
| 2026-05-05 16:10 | 44.61870 | 12.25802 | 36979 ft | 412 kts | 188° |
| 2026-05-05 16:10 | 44.56132 | 12.25511 | 36979 ft | 413 kts | 188° |
| 2026-05-05 16:11 | 44.50422 | 12.25229 | 36980 ft | 413 kts | 188° |
| 2026-05-05 16:12 | 44.38943 | 12.24636 | 36996 ft | 413 kts | 189° |
| 2026-05-05 16:13 | 44.24594 | 12.23903 | 36963 ft | 413 kts | 189° |
| 2026-05-05 16:13 | 44.18847 | 12.23609 | 36966 ft | 413 kts | 189° |
| 2026-05-05 16:14 | 44.07363 | 12.23033 | 36618 ft | 414 kts | 189° |
| 2026-05-05 16:15 | 44.01649 | 12.22749 | 36102 ft | 413 kts | 189° |
| 2026-05-05 16:15 | 43.95894 | 12.22464 | 35607 ft | 414 kts | 190° |
| 2026-05-05 16:16 | 43.90147 | 12.22174 | 35107 ft | 411 kts | 191° |
| 2026-05-05 16:16 | 43.84444 | 12.21887 | 35010 ft | 410 kts | 191° |
| 2026-05-05 16:17 | 43.78711 | 12.21599 | 34100 ft | 407 kts | 191° |
| 2026-05-05 16:17 | 43.75922 | 12.21473 | 33995 ft | 394 kts | 191° |
| 2026-05-05 16:18 | 43.70622 | 12.21238 | 33809 ft | 370 kts | 192° |
| 2026-05-05 16:18 | 43.68056 | 12.21109 | 33436 ft | 367 kts | 192° |
| 2026-05-05 16:18 | 43.62962 | 12.20836 | 32553 ft | 365 kts | 191° |
| 2026-05-05 16:19 | 43.60445 | 12.20696 | 31799 ft | 371 kts | 191° |
| 2026-05-05 16:19 | 43.57787 | 12.20539 | 30845 ft | 385 kts | 190° |
| 2026-05-05 16:19 | 43.52478 | 12.20265 | 29900 ft | 382 kts | 189° |
| 2026-05-05 16:20 | 43.47217 | 12.20022 | 29054 ft | 374 kts | 189° |
| 2026-05-05 16:20 | 43.42066 | 12.19783 | 28269 ft | 366 kts | 189° |
| 2026-05-05 16:21 | 43.37018 | 12.19538 | 27474 ft | 359 kts | 188° |
| 2026-05-05 16:22 | 43.29637 | 12.19159 | 26292 ft | 349 kts | 188° |
| 2026-05-05 16:22 | 43.24824 | 12.18928 | 25480 ft | 343 kts | 188° |
| 2026-05-05 16:23 | 43.20091 | 12.18701 | 24652 ft | 338 kts | 187° |
| 2026-05-05 16:23 | 43.17769 | 12.18584 | 24220 ft | 337 kts | 187° |
| 2026-05-05 16:23 | 43.13072 | 12.18340 | 23355 ft | 335 kts | 187° |
| 2026-05-05 16:24 | 43.10779 | 12.18226 | 22911 ft | 333 kts | 187° |
| 2026-05-05 16:24 | 43.08467 | 12.18109 | 22446 ft | 332 kts | 187° |
| 2026-05-05 16:24 | 43.03854 | 12.17887 | 21549 ft | 330 kts | 186° |
| 2026-05-05 16:25 | 43.01550 | 12.17781 | 21094 ft | 330 kts | 186° |
| 2026-05-05 16:25 | 42.96964 | 12.17571 | 20207 ft | 329 kts | 186° |
| 2026-05-05 16:25 | 42.94673 | 12.17469 | 19770 ft | 329 kts | 186° |
| 2026-05-05 16:26 | 42.90083 | 12.17272 | 18885 ft | 331 kts | 186° |
| 2026-05-05 16:26 | 42.85474 | 12.17065 | 17958 ft | 333 kts | 186° |
| 2026-05-05 16:27 | 42.83164 | 12.16959 | 17515 ft | 332 kts | 186° |
| 2026-05-05 16:27 | 42.80852 | 12.16851 | 17076 ft | 331 kts | 186° |
| 2026-05-05 16:27 | 42.78553 | 12.16739 | 16645 ft | 330 kts | 186° |
| 2026-05-05 16:27 | 42.76261 | 12.16632 | 16219 ft | 329 kts | 185° |
| 2026-05-05 16:28 | 42.73974 | 12.16532 | 15800 ft | 329 kts | 185° |
| 2026-05-05 16:28 | 42.71687 | 12.16434 | 15373 ft | 328 kts | 185° |
| 2026-05-05 16:28 | 42.69419 | 12.16246 | 15072 ft | 322 kts | 192° |
| 2026-05-05 16:28 | 42.67274 | 12.15736 | 14928 ft | 311 kts | 193° |
| 2026-05-05 16:29 | 42.65159 | 12.15238 | 14550 ft | 306 kts | 193° |
| 2026-05-05 16:29 | 42.63074 | 12.14752 | 14201 ft | 302 kts | 193° |
| 2026-05-05 16:29 | 42.61000 | 12.14272 | 13871 ft | 297 kts | 194° |
| 2026-05-05 16:29 | 42.59000 | 12.13805 | 13437 ft | 294 kts | 193° |
| 2026-05-05 16:30 | 42.56992 | 12.13333 | 12963 ft | 292 kts | 194° |
| 2026-05-05 16:30 | 42.54998 | 12.12867 | 12517 ft | 290 kts | 193° |
| 2026-05-05 16:30 | 42.53013 | 12.12408 | 12071 ft | 288 kts | 193° |
| 2026-05-05 16:30 | 42.51048 | 12.11952 | 11631 ft | 285 kts | 193° |
| 2026-05-05 16:31 | 42.49097 | 12.11497 | 11170 ft | 284 kts | 193° |
| 2026-05-05 16:31 | 42.47163 | 12.11047 | 10710 ft | 282 kts | 193° |
| 2026-05-05 16:31 | 42.45252 | 12.10609 | 10468 ft | 272 kts | 193° |
| 2026-05-05 16:31 | 42.43431 | 12.10194 | 10343 ft | 258 kts | 194° |
| 2026-05-05 16:32 | 42.41679 | 12.09790 | 9885 ft | 259 kts | 194° |
| 2026-05-05 16:32 | 42.39881 | 12.09374 | 9371 ft | 260 kts | 191° |
| 2026-05-05 16:32 | 42.38095 | 12.09470 | 9128 ft | 258 kts | 172° |
| 2026-05-05 16:32 | 42.36377 | 12.10168 | 8745 ft | 256 kts | 166° |
| 2026-05-05 16:33 | 42.34722 | 12.10875 | 8539 ft | 246 kts | 166° |
| 2026-05-05 16:33 | 42.33095 | 12.11567 | 8105 ft | 245 kts | 166° |
| 2026-05-05 16:33 | 42.31480 | 12.12250 | 7759 ft | 243 kts | 166° |
| 2026-05-05 16:33 | 42.29874 | 12.12929 | 7434 ft | 241 kts | 166° |
| 2026-05-05 16:34 | 42.28285 | 12.13600 | 7131 ft | 238 kts | 165° |
| 2026-05-05 16:34 | 42.26712 | 12.14268 | 6826 ft | 236 kts | 165° |
| 2026-05-05 16:34 | 42.25150 | 12.14933 | 6518 ft | 234 kts | 165° |
| 2026-05-05 16:34 | 42.23609 | 12.15589 | 6217 ft | 231 kts | 165° |
| 2026-05-05 16:35 | 42.22088 | 12.16233 | 5914 ft | 228 kts | 165° |
| 2026-05-05 16:35 | 42.20578 | 12.16870 | 5616 ft | 224 kts | 165° |
| 2026-05-05 16:35 | 42.19098 | 12.17495 | 5333 ft | 222 kts | 165° |
| 2026-05-05 16:35 | 42.17636 | 12.18112 | 5064 ft | 220 kts | 165° |
| 2026-05-05 16:36 | 42.16178 | 12.18728 | 4782 ft | 218 kts | 163° |
| 2026-05-05 16:36 | 42.14698 | 12.19030 | 4483 ft | 213 kts | 184° |
| 2026-05-05 16:36 | 42.13241 | 12.18701 | 4230 ft | 213 kts | 194° |
| 2026-05-05 16:36 | 42.11793 | 12.18254 | 3950 ft | 213 kts | 193° |
| 2026-05-05 16:37 | 42.10352 | 12.17820 | 3675 ft | 212 kts | 193° |
| 2026-05-05 16:37 | 42.08908 | 12.17386 | 3415 ft | 211 kts | 192° |
| 2026-05-05 16:37 | 42.07474 | 12.16987 | 3131 ft | 210 kts | 186° |
| 2026-05-05 16:37 | 42.06046 | 12.17137 | 2951 ft | 204 kts | 166° |
| 2026-05-05 16:38 | 42.04714 | 12.17693 | 2904 ft | 198 kts | 164° |
| 2026-05-05 16:38 | 42.03410 | 12.18242 | 2852 ft | 196 kts | 163° |
| 2026-05-05 16:38 | 42.02112 | 12.18789 | 2764 ft | 195 kts | 163° |
| 2026-05-05 16:38 | 42.00816 | 12.19335 | 2700 ft | 194 kts | 163° |
| 2026-05-05 16:39 | 41.99545 | 12.19870 | 2608 ft | 194 kts | 163° |
| 2026-05-05 16:39 | 41.98279 | 12.20402 | 2533 ft | 192 kts | 164° |
| 2026-05-05 16:39 | 41.96997 | 12.20942 | 2466 ft | 191 kts | 164° |
| 2026-05-05 16:39 | 41.95745 | 12.21468 | 2309 ft | 190 kts | 165° |
| 2026-05-05 16:40 | 41.94489 | 12.21997 | 2078 ft | 187 kts | 163° |
| 2026-05-05 16:40 | 41.93262 | 12.22513 | 1870 ft | 177 kts | 163° |
| 2026-05-05 16:40 | 41.92132 | 12.22987 | 1613 ft | 168 kts | 162° |
| 2026-05-05 16:40 | 41.91066 | 12.23434 | 1387 ft | 155 kts | 162° |
| 2026-05-05 16:41 | 41.90073 | 12.23851 | 1187 ft | 144 kts | 162° |
| 2026-05-05 16:41 | 41.89148 | 12.24242 | 972 ft | 138 kts | 163° |
| 2026-05-05 16:41 | 41.88260 | 12.24629 | 810 ft | 133 kts | 161° |
| 2026-05-05 16:42 | 41.86754 | 12.25295 | 566 ft | 128 kts | 163° |
| 2026-05-05 16:42 | 41.85859 | 12.25632 | 372 ft | 135 kts | 162° |
| 2026-05-05 16:42 | 41.84984 | 12.25989 | 175 ft | 130 kts | 162° |
| 2026-05-05 16:42 | 41.84134 | 12.26345 | 27 ft | 122 kts | 162° |
| 2026-05-05 16:43 | 41.83410 | 12.26650 | 12 ft | 90 kts | 161° |
| 2026-05-05 16:43 | 41.83100 | 12.26782 | 11 ft | 4 kts | 164° |
| 2026-05-05 16:43 | 41.83034 | 12.26807 | 12 ft | 24 kts | 165° |
| 2026-05-05 16:43 | 41.82826 | 12.26864 | 13 ft | 31 kts | 174° |
| 2026-05-05 16:44 | 41.82627 | 12.26845 | 10 ft | 29 kts | 191° |
| 2026-05-05 16:44 | 41.82436 | 12.26791 | 11 ft | 27 kts | 191° |
| 2026-05-05 16:44 | 41.82262 | 12.26807 | 11 ft | 24 kts | 165° |
| 2026-05-05 16:44 | 41.82109 | 12.26870 | 11 ft | 22 kts | 163° |
| 2026-05-05 16:45 | 41.81966 | 12.26928 | 13 ft | 21 kts | 162° |
| 2026-05-05 16:45 | 41.81831 | 12.26985 | 13 ft | 20 kts | 163° |
| 2026-05-05 16:45 | 41.81702 | 12.27039 | 13 ft | 20 kts | 161° |
| 2026-05-05 16:45 | 41.81572 | 12.27093 | 12 ft | 20 kts | 163° |
| 2026-05-05 16:46 | 41.81446 | 12.27147 | 12 ft | 20 kts | 162° |
| 2026-05-05 16:46 | 41.81316 | 12.27200 | 13 ft | 20 kts | 163° |
| 2026-05-05 16:46 | 41.81189 | 12.27252 | 12 ft | 20 kts | 163° |
| 2026-05-05 16:46 | 41.81067 | 12.27305 | 12 ft | 20 kts | 160° |
| 2026-05-05 16:47 | 41.80943 | 12.27352 | 14 ft | 20 kts | 176° |
| 2026-05-05 16:47 | 41.80808 | 12.27328 | 13 ft | 20 kts | 188° |
| 2026-05-05 16:47 | 41.80681 | 12.27265 | 13 ft | 20 kts | 225° |
| 2026-05-05 16:47 | 41.80621 | 12.27093 | 13 ft | 21 kts | 252° |
| 2026-05-05 16:48 | 41.80571 | 12.26910 | 14 ft | 21 kts | 249° |
| 2026-05-05 16:48 | 41.80521 | 12.26729 | 14 ft | 20 kts | 250° |
| 2026-05-05 16:48 | 41.80476 | 12.26565 | 15 ft | 18 kts | 249° |
| 2026-05-05 16:48 | 41.80442 | 12.26448 | 17 ft | 7 kts | 249° |
| 2026-05-05 16:49 | 41.80421 | 12.26392 | 16 ft | 8 kts | 233° |
| 2026-05-05 16:49 | 41.80367 | 12.26365 | 14 ft | 10 kts | 178° |
| 2026-05-05 16:49 | 41.80302 | 12.26393 | 14 ft | 9 kts | 159° |
| 2026-05-05 16:49 | 41.80243 | 12.26411 | 14 ft | 8 kts | 179° |
| 2026-05-05 16:50 | 41.80191 | 12.26392 | 15 ft | 7 kts | 203° |
| 2026-05-05 16:50 | 41.80148 | 12.26366 | 16 ft | 6 kts | 205° |
| 2026-05-05 16:50 | 41.80109 | 12.26340 | 14 ft | 8 kts | 205° |
| 2026-05-05 16:50 | 41.80037 | 12.26296 | 14 ft | 16 kts | 205° |
| 2026-05-05 16:51 | 41.79938 | 12.26235 | 14 ft | 15 kts | 205° |
| 2026-05-05 16:51 | 41.79851 | 12.26181 | 14 ft | 13 kts | 205° |
| 2026-05-05 16:51 | 41.79774 | 12.26126 | 15 ft | 12 kts | 212° |
| 2026-05-05 16:51 | 41.79706 | 12.26077 | 14 ft | 10 kts | 204° |
| 2026-05-05 16:52 | 41.79644 | 12.26038 | 16 ft | 9 kts | 205° |
| 2026-05-05 16:52 | 41.79590 | 12.26004 | 16 ft | 8 kts | 204° |
| 2026-05-05 16:52 | 41.79545 | 12.25976 | 15 ft | 5 kts | 205° |
| 2026-05-05 16:52 | 41.79534 | 12.25956 | 14 ft | 4 kts | 264° |
| 2026-05-05 16:53 | 41.79540 | 12.25921 | 17 ft | 3 kts | 290° |
| 2026-05-05 16:53 | 41.79548 | 12.25899 | 14 ft | 1 kts | 296° |
| 2026-05-05 16:53 | 41.79550 | 12.25892 | 14 ft | 0 kts | 296° |
| 2026-05-05 16:53 | 41.79551 | 12.25889 | 14 ft | 0 kts | 296° |